createdAt,value
2017-09-27T00:00:10.569Z,12.83
2017-09-27T00:02:37.285Z,11.53
2017-09-27T00:05:04.078Z,12.47
2017-09-27T00:07:30.141Z,12.30
2017-09-27T00:09:57.147Z,11.80
2017-09-27T00:12:23.162Z,12.20
2017-09-27T00:14:49.978Z,12.73
2017-09-27T00:17:16.777Z,12.23
2017-09-27T00:19:44.346Z,11.33
2017-09-27T00:22:11.135Z,11.23
2017-09-27T00:24:37.208Z,11.93
2017-09-27T00:27:03.395Z,10.90
2017-09-27T00:29:30.179Z,11.30
2017-09-27T00:31:56.242Z,10.80
2017-09-27T00:34:23.038Z,12.17
2017-09-27T00:36:49.142Z,11.10
2017-09-27T00:39:15.232Z,11.83
2017-09-27T00:41:41.327Z,11.50
2017-09-27T00:44:07.369Z,10.63
2017-09-27T00:46:33.667Z,11.90
2017-09-27T00:49:00.022Z,12.50
2017-09-27T00:51:26.295Z,11.83
2017-09-27T00:53:54.352Z,11.07
2017-09-27T00:56:20.611Z,11.60
2017-09-27T00:58:46.819Z,10.17
2017-09-27T01:01:13.073Z,10.67
2017-09-27T01:03:39.307Z,11.80
2017-09-27T01:06:05.574Z,11.30
2017-09-27T01:08:31.790Z,11.07
2017-09-27T01:10:58.062Z,10.47
2017-09-27T01:13:24.442Z,10.80
2017-09-27T01:15:50.674Z,12.03
2017-09-27T01:18:16.935Z,11.30
2017-09-27T01:20:43.925Z,12.03
2017-09-27T01:23:10.167Z,12.83
2017-09-27T01:25:36.402Z,12.70
2017-09-27T01:28:02.627Z,11.53
2017-09-27T01:30:28.887Z,12.40
2017-09-27T01:32:55.133Z,13.20
2017-09-27T01:35:21.387Z,12.53
2017-09-27T01:37:47.668Z,11.13
2017-09-27T01:40:13.922Z,12.20
2017-09-27T01:42:40.160Z,12.47
2017-09-27T01:45:06.475Z,11.23
2017-09-27T01:47:32.716Z,12.43
2017-09-27T01:49:58.954Z,13.33
2017-09-27T01:52:25.625Z,13.83
2017-09-27T01:54:51.879Z,13.47
2017-09-27T01:57:18.172Z,12.80
2017-09-27T01:59:44.442Z,13.17
2017-09-27T02:02:10.683Z,12.57
2017-09-27T02:04:36.907Z,12.07
2017-09-27T02:07:03.231Z,13.60
2017-09-27T02:09:30.210Z,14.20
2017-09-27T02:11:56.451Z,15.17
2017-09-27T02:14:22.670Z,14.67
2017-09-27T02:16:48.935Z,15.37
2017-09-27T02:19:15.185Z,15.50
2017-09-27T02:21:42.227Z,16.37
2017-09-27T02:24:08.463Z,14.90
2017-09-27T02:26:35.423Z,14.70
2017-09-27T02:29:02.393Z,16.37
2017-09-27T02:31:28.617Z,15.57
2017-09-27T02:33:54.834Z,14.30
2017-09-27T02:36:21.066Z,15.07
2017-09-27T02:38:47.290Z,15.47
2017-09-27T02:41:14.258Z,15.13
2017-09-27T02:43:40.490Z,14.97
2017-09-27T02:46:06.703Z,14.40
2017-09-27T02:48:32.946Z,15.50
2017-09-27T02:50:59.179Z,15.97
2017-09-27T02:53:25.495Z,16.47
2017-09-27T02:55:51.751Z,15.00
2017-09-27T02:58:17.994Z,15.80
2017-09-27T03:00:44.351Z,14.23
2017-09-27T03:03:10.578Z,14.20
2017-09-27T03:05:36.809Z,14.80
2017-09-27T03:08:03.048Z,16.43
2017-09-27T03:10:29.285Z,16.10
2017-09-27T03:12:56.265Z,16.67
2017-09-27T03:15:22.490Z,17.87
2017-09-27T03:17:48.794Z,16.47
2017-09-27T03:20:15.065Z,18.47
2017-09-27T03:22:41.343Z,16.33
2017-09-27T03:25:07.596Z,16.50
2017-09-27T03:27:33.881Z,14.90
2017-09-27T03:30:00.120Z,16.10
2017-09-27T03:32:27.116Z,15.53
2017-09-27T03:34:53.338Z,16.63
2017-09-27T03:37:19.591Z,15.50
2017-09-27T03:39:45.851Z,15.77
2017-09-27T03:42:12.138Z,17.63
2017-09-27T03:44:38.381Z,18.13
2017-09-27T03:47:04.620Z,20.90
2017-09-27T03:49:31.627Z,19.00
2017-09-27T03:51:57.874Z,16.60
2017-09-27T03:54:24.163Z,18.37
2017-09-27T03:56:50.391Z,19.30
2017-09-27T03:59:17.386Z,18.63
2017-09-27T04:01:43.615Z,18.90
2017-09-27T04:04:09.913Z,17.73
2017-09-27T04:06:36.138Z,17.50
2017-09-27T04:09:02.387Z,17.70
2017-09-27T04:11:29.429Z,15.17
2017-09-27T04:13:55.656Z,16.60
2017-09-27T04:16:21.907Z,16.80
2017-09-27T04:18:48.128Z,17.57
2017-09-27T04:21:14.763Z,15.80
2017-09-27T04:23:41.027Z,20.43
2017-09-27T04:26:07.289Z,19.10
2017-09-27T04:28:33.487Z,18.00
2017-09-27T04:30:59.764Z,16.60
2017-09-27T04:33:26.024Z,15.80
2017-09-27T04:35:53.023Z,15.93
2017-09-27T04:38:19.271Z,17.03
2017-09-27T04:40:46.493Z,16.20
2017-09-27T04:43:14.966Z,18.47
2017-09-27T04:45:41.942Z,16.33
2017-09-27T04:48:08.180Z,17.07
2017-09-27T04:50:34.427Z,15.33
2017-09-27T04:53:00.699Z,16.30
2017-09-27T04:55:26.966Z,16.63
2017-09-27T04:57:53.949Z,18.13
2017-09-27T05:00:20.163Z,17.07
2017-09-27T05:02:46.460Z,16.57
2017-09-27T05:05:12.721Z,17.07
2017-09-27T05:07:39.710Z,17.20
2017-09-27T05:10:06.024Z,20.40
2017-09-27T05:12:32.278Z,17.07
2017-09-27T05:14:58.539Z,17.23
2017-09-27T05:17:24.831Z,18.43
2017-09-27T05:19:51.800Z,15.90
2017-09-27T05:22:18.052Z,18.50
2017-09-27T05:24:45.088Z,16.80
2017-09-27T05:27:11.317Z,18.17
2017-09-27T05:29:38.307Z,17.67
2017-09-27T05:32:04.538Z,16.67
2017-09-27T05:34:30.802Z,17.50
2017-09-27T05:36:57.043Z,17.20
2017-09-27T05:39:23.291Z,15.77
2017-09-27T05:41:50.699Z,18.20
2017-09-27T05:44:16.932Z,16.50
2017-09-27T05:46:43.193Z,17.40
2017-09-27T05:49:09.432Z,16.67
2017-09-27T05:51:35.687Z,24.10
2017-09-27T05:54:02.650Z,20.13
2017-09-27T05:56:28.886Z,17.83
2017-09-27T05:58:55.134Z,18.37
2017-09-27T06:01:21.423Z,18.27
2017-09-27T06:03:47.658Z,18.67
2017-09-27T06:06:14.731Z,17.67
2017-09-27T06:08:40.986Z,17.60
2017-09-27T06:11:07.246Z,19.10
2017-09-27T06:13:33.489Z,19.10
2017-09-27T06:15:59.723Z,17.83
2017-09-27T06:18:27.757Z,18.73
2017-09-27T06:20:54.003Z,16.63
2017-09-27T06:23:20.243Z,19.23
2017-09-27T06:25:46.487Z,18.80
2017-09-27T06:28:13.871Z,18.00
2017-09-27T06:30:41.011Z,18.93
2017-09-27T06:33:07.330Z,17.87
2017-09-27T06:35:34.326Z,17.07
2017-09-27T06:38:00.544Z,19.83
2017-09-27T06:40:26.962Z,18.50
2017-09-27T06:42:53.606Z,19.20
2017-09-27T06:45:20.040Z,20.87
2017-09-27T06:47:47.039Z,20.73
2017-09-27T06:50:13.308Z,21.93
2017-09-27T06:52:39.564Z,22.70
2017-09-27T06:55:05.827Z,18.17
2017-09-27T06:57:33.066Z,18.00
2017-09-27T06:59:59.322Z,19.23
2017-09-27T07:02:26.274Z,19.00
2017-09-27T07:04:52.560Z,16.87
2017-09-27T07:07:18.837Z,18.70
2017-09-27T07:09:45.110Z,19.47
2017-09-27T07:12:11.388Z,17.47
2017-09-27T07:14:37.708Z,18.13
2017-09-27T07:17:04.087Z,18.23
2017-09-27T07:19:30.347Z,17.33
2017-09-27T07:21:56.687Z,17.23
2017-09-27T07:24:23.014Z,16.27
2017-09-27T07:26:49.294Z,18.17
2017-09-27T07:29:15.559Z,16.53
2017-09-27T07:31:42.580Z,16.63
2017-09-27T07:34:08.864Z,17.37
2017-09-27T07:36:35.150Z,15.93
2017-09-27T07:39:01.393Z,16.80
2017-09-27T07:41:31.120Z,16.93
2017-09-27T07:43:57.385Z,16.43
2017-09-27T07:46:23.654Z,16.70
2017-09-27T07:48:49.938Z,16.53
2017-09-27T07:51:16.206Z,15.87
2017-09-27T07:53:42.489Z,15.27
2017-09-27T07:56:09.471Z,15.50
2017-09-27T07:58:35.767Z,15.83
2017-09-27T08:01:01.986Z,15.23
2017-09-27T08:03:28.265Z,15.63
2017-09-27T08:05:54.466Z,17.17
2017-09-27T08:08:20.691Z,16.17
2017-09-27T08:10:47.658Z,15.57
2017-09-27T08:13:13.890Z,15.83
2017-09-27T08:15:40.106Z,14.90
2017-09-27T08:18:07.802Z,16.07
2017-09-27T08:20:34.777Z,16.33
2017-09-27T08:23:01.003Z,15.13
2017-09-27T08:25:27.243Z,16.50
2017-09-27T08:27:53.503Z,15.63
2017-09-27T08:30:19.779Z,16.00
2017-09-27T08:35:17.527Z,15.57
2017-09-27T08:37:43.758Z,16.27
2017-09-27T08:40:10.746Z,16.40
2017-09-27T08:42:36.957Z,16.80
2017-09-27T08:45:03.180Z,15.70
2017-09-27T08:47:29.463Z,17.13
2017-09-27T08:49:57.051Z,17.77
2017-09-27T08:52:24.057Z,17.33
2017-09-27T08:54:50.273Z,17.40
2017-09-27T08:57:16.540Z,16.00
2017-09-27T08:59:42.773Z,16.10
2017-09-27T09:02:09.022Z,15.90
2017-09-27T09:04:35.247Z,15.37
2017-09-27T09:07:02.912Z,16.70
2017-09-27T09:09:29.147Z,18.93
2017-09-27T09:11:55.402Z,17.80
2017-09-27T09:14:21.630Z,17.13
2017-09-27T09:16:47.879Z,16.30
2017-09-27T09:19:14.924Z,17.43
2017-09-27T09:21:41.147Z,17.23
2017-09-27T09:24:11.343Z,18.90
2017-09-27T09:26:37.594Z,16.97
2017-09-27T09:29:03.871Z,17.63
2017-09-27T09:31:30.102Z,17.37
2017-09-27T09:33:56.364Z,16.73
2017-09-27T09:36:22.610Z,17.60
2017-09-27T09:38:48.935Z,18.00
2017-09-27T09:41:15.178Z,17.03
2017-09-27T09:43:43.407Z,17.63
2017-09-27T09:46:09.671Z,17.37
2017-09-27T09:48:35.906Z,16.40
2017-09-27T09:51:02.177Z,16.93
2017-09-27T09:53:28.442Z,16.20
2017-09-27T09:55:54.694Z,16.73
2017-09-27T09:58:20.918Z,15.57
2017-09-27T10:00:47.159Z,14.80
2017-09-27T10:03:18.094Z,15.20
2017-09-27T10:05:44.359Z,16.87
2017-09-27T10:08:10.586Z,16.33
2017-09-27T10:10:36.846Z,17.27
2017-09-27T10:13:03.071Z,14.63
2017-09-27T10:15:29.313Z,13.20
2017-09-27T10:17:56.340Z,14.87
2017-09-27T10:20:22.569Z,14.83
2017-09-27T10:22:55.611Z,14.90
2017-09-27T10:25:21.671Z,15.60
2017-09-27T10:27:48.750Z,16.40
2017-09-27T10:30:16.303Z,15.57
2017-09-27T10:32:43.172Z,15.63
2017-09-27T10:35:09.252Z,16.00
2017-09-27T10:37:38.487Z,14.30
2017-09-27T10:40:04.578Z,14.37
2017-09-27T10:42:30.733Z,13.63
2017-09-27T10:44:56.789Z,15.27
2017-09-27T10:47:22.830Z,14.30
2017-09-27T10:49:48.884Z,13.77
2017-09-27T10:52:15.164Z,13.43
2017-09-27T10:54:41.223Z,14.57
2017-09-27T10:57:08.013Z,14.53
2017-09-27T10:59:34.055Z,14.80
2017-09-27T11:02:05.739Z,13.30
2017-09-27T11:04:31.808Z,13.60
2017-09-27T11:06:57.951Z,13.43
2017-09-27T11:09:24.203Z,13.57
2017-09-27T11:11:50.468Z,13.70
2017-09-27T11:14:17.165Z,12.57
2017-09-27T11:16:43.439Z,14.03
2017-09-27T11:19:09.682Z,12.27
2017-09-27T11:21:36.024Z,13.20
2017-09-27T11:24:03.012Z,13.17
2017-09-27T11:26:29.243Z,12.60
2017-09-27T11:28:55.483Z,12.77
2017-09-27T11:31:21.751Z,12.90
2017-09-27T11:33:47.992Z,12.40
2017-09-27T11:36:14.239Z,12.37
2017-09-27T11:38:40.496Z,13.70
2017-09-27T11:41:06.724Z,12.03
2017-09-27T11:43:32.991Z,11.70
2017-09-27T11:45:59.247Z,12.20
2017-09-27T11:48:26.020Z,11.43
2017-09-27T11:50:52.253Z,12.80
2017-09-27T11:53:18.561Z,13.33
2017-09-27T11:55:44.858Z,12.20
2017-09-27T11:58:11.110Z,13.73
2017-09-27T12:00:37.363Z,12.93
2017-09-27T12:03:03.562Z,10.97
2017-09-27T12:05:29.825Z,11.83
2017-09-27T12:07:56.048Z,12.90
2017-09-27T12:10:22.351Z,12.23
2017-09-27T12:12:48.587Z,11.80
2017-09-27T12:15:14.923Z,12.27
2017-09-27T12:17:41.140Z,11.80
2017-09-27T12:20:07.371Z,13.30
2017-09-27T12:22:34.344Z,11.90
2017-09-27T12:25:00.594Z,12.13
2017-09-27T12:27:26.831Z,11.50
2017-09-27T12:29:53.131Z,11.40
2017-09-27T12:32:19.411Z,11.83
2017-09-27T12:34:45.659Z,10.70
2017-09-27T12:37:12.028Z,10.73
2017-09-27T12:39:38.308Z,11.60
2017-09-27T12:42:05.444Z,10.77
2017-09-27T12:44:32.418Z,11.07
2017-09-27T12:46:58.670Z,11.47
2017-09-27T12:49:24.902Z,10.70
2017-09-27T12:51:51.225Z,10.50
2017-09-27T12:54:17.628Z,11.53
2017-09-27T12:56:43.906Z,10.50
2017-09-27T12:59:10.154Z,10.87
2017-09-27T13:01:36.412Z,10.93
2017-09-27T13:04:02.687Z,10.70
2017-09-27T13:06:29.667Z,11.60
2017-09-27T13:08:58.484Z,11.80
2017-09-27T13:11:28.380Z,13.73
2017-09-27T13:13:55.204Z,11.70
2017-09-27T13:16:22.236Z,10.47
2017-09-27T13:18:49.239Z,12.27
2017-09-27T13:21:15.508Z,10.87
2017-09-27T13:23:41.750Z,11.77
2017-09-27T13:26:07.977Z,10.50
2017-09-27T13:28:34.214Z,11.60
2017-09-27T13:31:00.497Z,11.00
2017-09-27T13:33:26.828Z,10.73
2017-09-27T13:35:53.131Z,10.97
2017-09-27T13:38:19.426Z,10.37
2017-09-27T13:40:45.655Z,10.20
2017-09-27T13:43:15.784Z,9.63
2017-09-27T13:45:41.927Z,9.90
2017-09-27T13:48:08.028Z,10.63
2017-09-27T13:50:34.164Z,9.37
2017-09-27T13:53:00.529Z,10.10
2017-09-27T13:55:26.824Z,8.83
2017-09-27T13:57:55.376Z,8.80
2017-09-27T14:00:21.618Z,8.80
2017-09-27T14:02:47.882Z,7.03
2017-09-27T14:05:14.397Z,8.00
2017-09-27T14:07:40.627Z,7.80
2017-09-27T14:10:06.876Z,8.43
2017-09-27T14:12:33.129Z,8.17
2017-09-27T14:14:59.409Z,10.50
2017-09-27T14:17:25.656Z,8.97
2017-09-27T14:19:52.629Z,8.73
2017-09-27T14:22:18.880Z,7.70
2017-09-27T14:24:45.147Z,9.17
2017-09-27T14:27:11.440Z,7.90
2017-09-27T14:29:37.738Z,7.30
2017-09-27T14:32:03.982Z,7.80
2017-09-27T14:34:30.300Z,8.10
2017-09-27T14:36:56.530Z,9.00
2017-09-27T14:39:22.772Z,9.17
2017-09-27T14:41:49.819Z,8.40
2017-09-27T14:44:16.827Z,9.60
2017-09-27T14:46:43.061Z,11.20
2017-09-27T14:49:10.132Z,11.23
2017-09-27T14:51:36.399Z,11.70
2017-09-27T14:54:02.669Z,11.17
2017-09-27T14:56:29.008Z,12.57
2017-09-27T14:58:55.242Z,10.90
2017-09-27T15:01:21.523Z,11.87
2017-09-27T15:03:47.926Z,12.10
2017-09-27T15:06:14.229Z,14.47
2017-09-27T15:08:40.535Z,13.23
2017-09-27T15:11:06.766Z,12.40
2017-09-27T15:13:33.023Z,14.70
2017-09-27T15:15:59.248Z,13.37
2017-09-27T15:18:25.491Z,13.70
2017-09-27T15:20:51.825Z,13.73
2017-09-27T15:23:18.091Z,12.20
2017-09-27T15:25:44.435Z,11.80
2017-09-27T15:28:10.701Z,12.00
2017-09-27T15:30:36.980Z,11.50
2017-09-27T15:33:03.287Z,9.50
2017-09-27T15:35:29.566Z,9.47
2017-09-27T15:37:55.816Z,9.03
2017-09-27T15:40:22.089Z,8.50
2017-09-27T15:42:48.352Z,9.00
2017-09-27T15:45:14.631Z,9.27
2017-09-27T15:47:40.836Z,9.03
2017-09-27T15:50:07.838Z,8.37
2017-09-27T15:52:34.091Z,8.60
2017-09-27T15:55:00.364Z,8.07
2017-09-27T15:57:26.599Z,10.77
2017-09-27T15:59:53.572Z,12.43
2017-09-27T16:05:16.679Z,15.03
2017-09-27T16:07:43.656Z,15.20
2017-09-27T16:10:09.890Z,14.83
2017-09-27T16:12:36.114Z,15.80
2017-09-27T16:15:02.387Z,15.73
2017-09-27T16:17:28.790Z,15.70
2017-09-27T16:19:55.000Z,15.53
2017-09-27T16:22:21.236Z,13.50
2017-09-27T16:24:47.479Z,13.80
2017-09-27T16:27:13.704Z,12.93
2017-09-27T16:29:39.971Z,12.83
2017-09-27T16:32:06.246Z,12.50
2017-09-27T16:34:32.490Z,12.17
2017-09-27T16:36:58.756Z,11.40
2017-09-27T16:39:25.740Z,11.20
2017-09-27T16:41:52.004Z,10.53
2017-09-27T16:44:19.015Z,10.77
2017-09-27T16:46:45.260Z,10.77
2017-09-27T16:49:12.242Z,11.47
2017-09-27T16:51:38.471Z,10.80
2017-09-27T16:54:04.644Z,10.20
2017-09-27T16:56:30.873Z,10.77
2017-09-27T16:58:57.770Z,10.00
2017-09-27T17:01:24.042Z,10.30
2017-09-27T17:03:50.303Z,10.90
2017-09-27T17:06:16.598Z,10.97
2017-09-27T17:08:42.822Z,10.37
2017-09-27T17:11:09.808Z,10.10
2017-09-27T17:13:36.087Z,10.77
2017-09-27T17:16:02.324Z,11.10
2017-09-27T17:18:28.556Z,10.67
2017-09-27T17:20:54.802Z,9.57
2017-09-27T17:23:21.750Z,9.03
2017-09-27T17:25:47.982Z,9.87
2017-09-27T17:28:14.336Z,9.10
2017-09-27T17:30:42.456Z,9.13
2017-09-27T17:33:08.755Z,9.33
2017-09-27T17:35:35.008Z,8.80
2017-09-27T17:38:01.320Z,8.73
2017-09-27T17:40:27.579Z,9.23
2017-09-27T17:42:54.026Z,9.07
2017-09-27T17:45:20.263Z,8.33
2017-09-27T17:47:46.491Z,9.07
2017-09-27T17:50:12.749Z,9.77
2017-09-27T17:52:39.007Z,11.37
2017-09-27T17:55:05.238Z,12.70
2017-09-27T17:57:31.707Z,11.83
2017-09-27T17:59:57.933Z,11.07
2017-09-27T18:02:24.180Z,9.90
2017-09-27T18:07:59.670Z,10.37
2017-09-27T18:10:31.706Z,10.77
2017-09-27T18:13:04.622Z,11.53
2017-09-27T18:18:28.952Z,10.47
2017-09-27T18:20:55.192Z,10.97
2017-09-27T18:23:21.466Z,10.93
2017-09-27T18:25:47.777Z,11.23
2017-09-27T18:28:14.073Z,11.77
2017-09-27T18:30:41.643Z,11.67
2017-09-27T18:33:07.896Z,11.93
2017-09-27T18:35:34.247Z,10.77
2017-09-27T18:38:01.262Z,11.30
2017-09-27T18:40:27.478Z,12.57
2017-09-27T18:42:53.691Z,12.87
2017-09-27T18:45:20.083Z,12.70
2017-09-27T18:50:43.272Z,12.20
2017-09-27T18:53:09.510Z,13.00
2017-09-27T18:55:35.751Z,13.53
2017-09-27T18:58:02.259Z,12.07
2017-09-27T19:00:28.527Z,12.70
2017-09-27T19:02:55.519Z,12.10
2017-09-27T19:05:21.750Z,12.80
2017-09-27T19:07:48.023Z,12.50
2017-09-27T19:10:19.461Z,13.07
2017-09-27T19:12:46.307Z,13.53
2017-09-27T19:15:13.571Z,12.50
2017-09-27T19:17:39.885Z,12.70
2017-09-27T19:20:06.446Z,15.27
2017-09-27T19:22:38.046Z,13.23
2017-09-27T19:25:04.306Z,14.07
2017-09-27T19:27:30.611Z,13.50
2017-09-27T19:29:56.878Z,14.07
2017-09-27T19:32:23.895Z,13.40
2017-09-27T19:34:50.198Z,13.63
2017-09-27T19:39:48.114Z,15.17
2017-09-27T19:42:15.392Z,14.40
2017-09-27T19:44:42.468Z,14.73
2017-09-27T19:47:08.728Z,14.20
2017-09-27T19:49:34.959Z,14.90
2017-09-27T19:52:01.217Z,13.60
2017-09-27T19:54:32.612Z,15.30
2017-09-27T19:56:59.593Z,15.47
2017-09-27T19:59:25.875Z,13.93
2017-09-27T20:01:52.956Z,15.60
2017-09-27T20:04:19.222Z,14.87
2017-09-27T20:06:46.232Z,14.70
2017-09-27T20:09:12.478Z,15.27
2017-09-27T20:11:38.800Z,14.67
2017-09-27T20:14:07.310Z,14.40
2017-09-27T20:16:33.615Z,14.30
2017-09-27T20:18:59.860Z,16.90
2017-09-27T20:21:26.068Z,15.33
2017-09-27T20:23:52.295Z,15.33
2017-09-27T20:26:18.538Z,14.33
2017-09-27T20:28:45.896Z,14.07
2017-09-27T20:31:17.967Z,13.73
2017-09-27T20:33:45.110Z,15.60
2017-09-27T20:36:11.476Z,16.57
2017-09-27T20:38:37.794Z,16.43
2017-09-27T20:41:04.142Z,17.10
2017-09-27T20:43:30.475Z,16.00
2017-09-27T20:45:56.934Z,18.30
2017-09-27T20:48:23.219Z,16.53
2017-09-27T20:50:50.238Z,17.87
2017-09-27T20:53:16.450Z,18.53
2017-09-27T20:55:42.670Z,16.50
2017-09-27T20:58:09.022Z,17.97
2017-09-27T21:00:35.352Z,16.73
2017-09-27T21:03:01.603Z,17.13
2017-09-27T21:05:27.940Z,16.07
2017-09-27T21:07:54.940Z,16.10
2017-09-27T21:10:21.165Z,16.77
2017-09-27T21:12:47.414Z,16.97
2017-09-27T21:15:13.644Z,15.80
2017-09-27T21:17:39.883Z,17.00
2017-09-27T21:20:06.125Z,18.03
2017-09-27T21:22:32.333Z,18.17
2017-09-27T21:24:59.379Z,17.87
2017-09-27T21:27:26.355Z,16.50
2017-09-27T21:29:52.594Z,17.60
2017-09-27T21:32:18.809Z,19.60
2017-09-27T21:34:45.198Z,17.57
2017-09-27T21:37:11.505Z,17.93
2017-09-27T21:39:37.822Z,18.53
2017-09-27T21:42:04.062Z,17.93
2017-09-27T21:44:30.273Z,16.37
2017-09-27T21:46:58.935Z,16.37
2017-09-27T21:49:25.153Z,17.97
2017-09-27T21:51:51.391Z,17.17
2017-09-27T21:54:17.650Z,18.43
2017-09-27T21:56:43.950Z,18.93
2017-09-27T21:59:10.192Z,19.40
2017-09-27T22:01:36.467Z,18.67
2017-09-27T22:04:02.686Z,18.90
2017-09-27T22:06:29.707Z,18.73
2017-09-27T22:08:55.959Z,17.90
2017-09-27T22:11:22.206Z,18.70
2017-09-27T22:13:48.442Z,19.13
2017-09-27T22:16:15.317Z,17.37
2017-09-27T22:18:41.564Z,18.17
2017-09-27T22:21:07.835Z,17.90
2017-09-27T22:23:34.059Z,17.53
2017-09-27T22:26:00.308Z,17.97
2017-09-27T22:28:26.533Z,18.27
2017-09-27T22:30:52.781Z,17.40
2017-09-27T22:33:19.021Z,17.93
2017-09-27T22:35:45.306Z,17.70
2017-09-27T22:38:11.632Z,20.83
2017-09-27T22:40:37.884Z,20.90
2017-09-27T22:43:04.135Z,18.63
2017-09-27T22:45:31.121Z,18.97
2017-09-27T22:47:57.364Z,17.50
2017-09-27T22:50:23.609Z,19.60
2017-09-27T22:52:50.254Z,20.03
2017-09-27T22:55:16.598Z,19.10
2017-09-27T22:57:42.835Z,18.87
2017-09-27T23:00:09.798Z,18.60
2017-09-27T23:02:36.054Z,19.60
2017-09-27T23:05:02.287Z,21.57
2017-09-27T23:07:28.510Z,18.90
2017-09-27T23:09:55.483Z,19.90
2017-09-27T23:12:21.715Z,18.80
2017-09-27T23:14:47.982Z,18.07
2017-09-27T23:17:14.219Z,18.77
2017-09-27T23:19:40.442Z,18.90
2017-09-27T23:22:06.747Z,20.10
2017-09-27T23:24:33.007Z,19.30
2017-09-27T23:26:59.245Z,22.57
2017-09-27T23:29:25.467Z,24.07
2017-09-27T23:31:51.715Z,24.20
2017-09-27T23:34:17.987Z,23.70
2017-09-27T23:36:45.746Z,24.07
2017-09-27T23:39:11.999Z,23.80
2017-09-27T23:41:38.990Z,23.60
2017-09-27T23:44:05.243Z,23.37
2017-09-27T23:46:31.955Z,24.10
2017-09-27T23:48:58.185Z,22.80
2017-09-27T23:51:25.150Z,24.00
2017-09-27T23:53:51.387Z,24.40
2017-09-27T23:56:17.631Z,21.97
2017-09-27T23:58:43.916Z,21.03
